sensor_id;sensor_type;location;lat;lon;timestamp;P1;durP1;ratioP1;P2;durP2;ratioP2
18931;SDS011;9598;50.954;3.112;2023-04-25T00:02:25;8.57;;;4.78;;
18931;SDS011;9598;50.954;3.112;2023-04-25T00:07:28;11.63;;;5.30;;
18931;SDS011;9598;50.954;3.112;2023-04-25T00:12:32;11.77;;;5.43;;
18931;SDS011;9598;50.954;3.112;2023-04-25T00:17:34;11.52;;;5.78;;
18931;SDS011;9598;50.954;3.112;2023-04-25T00:22:38;13.05;;;5.70;;
18931;SDS011;9598;50.954;3.112;2023-04-25T00:27:41;11.63;;;6.13;;
18931;SDS011;9598;50.954;3.112;2023-04-25T00:32:44;13.85;;;5.35;;
18931;SDS011;9598;50.954;3.112;2023-04-25T00:37:46;11.30;;;5.38;;
18931;SDS011;9598;50.954;3.112;2023-04-25T00:42:49;9.63;;;4.90;;
18931;SDS011;9598;50.954;3.112;2023-04-25T00:47:53;10.27;;;5.30;;
18931;SDS011;9598;50.954;3.112;2023-04-25T00:52:56;16.33;;;5.65;;
18931;SDS011;9598;50.954;3.112;2023-04-25T00:57:59;13.68;;;5.55;;
18931;SDS011;9598;50.954;3.112;2023-04-25T01:03:02;11.43;;;4.55;;
18931;SDS011;9598;50.954;3.112;2023-04-25T01:08:05;14.18;;;5.10;;
18931;SDS011;9598;50.954;3.112;2023-04-25T01:13:08;14.30;;;5.00;;
18931;SDS011;9598;50.954;3.112;2023-04-25T01:18:10;13.45;;;4.43;;
18931;SDS011;9598;50.954;3.112;2023-04-25T01:23:14;12.18;;;5.20;;
18931;SDS011;9598;50.954;3.112;2023-04-25T01:28:17;14.38;;;5.95;;
18931;SDS011;9598;50.954;3.112;2023-04-25T01:33:20;13.05;;;5.78;;
18931;SDS011;9598;50.954;3.112;2023-04-25T01:38:24;12.70;;;5.38;;
18931;SDS011;9598;50.954;3.112;2023-04-25T01:43:28;11.95;;;4.53;;
18931;SDS011;9598;50.954;3.112;2023-04-25T01:48:30;11.35;;;4.30;;
18931;SDS011;9598;50.954;3.112;2023-04-25T01:53:34;7.70;;;3.60;;
18931;SDS011;9598;50.954;3.112;2023-04-25T01:58:37;10.45;;;4.78;;
18931;SDS011;9598;50.954;3.112;2023-04-25T02:03:49;12.63;;;4.32;;
18931;SDS011;9598;50.954;3.112;2023-04-25T02:09:08;11.73;;;4.20;;
18931;SDS011;9598;50.954;3.112;2023-04-25T02:14:16;15.98;;;4.68;;
18931;SDS011;9598;50.954;3.112;2023-04-25T02:19:28;11.88;;;4.18;;
18931;SDS011;9598;50.954;3.112;2023-04-25T02:24:31;12.48;;;4.20;;
18931;SDS011;9598;50.954;3.112;2023-04-25T02:29:35;11.57;;;4.50;;
18931;SDS011;9598;50.954;3.112;2023-04-25T02:34:37;12.50;;;4.90;;
18931;SDS011;9598;50.954;3.112;2023-04-25T02:39:41;10.20;;;4.80;;
18931;SDS011;9598;50.954;3.112;2023-04-25T02:44:43;9.98;;;4.70;;
18931;SDS011;9598;50.954;3.112;2023-04-25T02:49:45;10.90;;;4.65;;
18931;SDS011;9598;50.954;3.112;2023-04-25T02:54:48;9.68;;;4.57;;
18931;SDS011;9598;50.954;3.112;2023-04-25T02:59:51;10.15;;;5.43;;
18931;SDS011;9598;50.954;3.112;2023-04-25T03:04:53;9.73;;;4.60;;
18931;SDS011;9598;50.954;3.112;2023-04-25T03:09:56;9.15;;;4.85;;
18931;SDS011;9598;50.954;3.112;2023-04-25T03:14:59;11.27;;;4.43;;
18931;SDS011;9598;50.954;3.112;2023-04-25T03:20:01;8.88;;;4.30;;
18931;SDS011;9598;50.954;3.112;2023-04-25T03:25:08;12.50;;;4.85;;
18931;SDS011;9598;50.954;3.112;2023-04-25T03:30:10;11.32;;;5.15;;
18931;SDS011;9598;50.954;3.112;2023-04-25T03:35:13;8.75;;;5.10;;
18931;SDS011;9598;50.954;3.112;2023-04-25T03:40:17;12.65;;;4.57;;
18931;SDS011;9598;50.954;3.112;2023-04-25T03:45:46;7.95;;;4.55;;
18931;SDS011;9598;50.954;3.112;2023-04-25T03:50:49;10.15;;;4.25;;
18931;SDS011;9598;50.954;3.112;2023-04-25T03:55:52;13.07;;;4.60;;
18931;SDS011;9598;50.954;3.112;2023-04-25T04:00:55;8.02;;;3.83;;
18931;SDS011;9598;50.954;3.112;2023-04-25T04:05:57;10.38;;;3.50;;
18931;SDS011;9598;50.954;3.112;2023-04-25T04:11:01;6.78;;;4.00;;
18931;SDS011;9598;50.954;3.112;2023-04-25T04:16:03;8.40;;;4.00;;
18931;SDS011;9598;50.954;3.112;2023-04-25T04:21:06;8.13;;;3.60;;
18931;SDS011;9598;50.954;3.112;2023-04-25T04:26:13;7.25;;;3.13;;
18931;SDS011;9598;50.954;3.112;2023-04-25T04:31:51;10.20;;;3.45;;
18931;SDS011;9598;50.954;3.112;2023-04-25T04:36:54;8.32;;;3.70;;
18931;SDS011;9598;50.954;3.112;2023-04-25T04:41:58;8.25;;;3.42;;
18931;SDS011;9598;50.954;3.112;2023-04-25T04:47:12;8.55;;;3.40;;
18931;SDS011;9598;50.954;3.112;2023-04-25T04:52:30;6.80;;;3.38;;
18931;SDS011;9598;50.954;3.112;2023-04-25T04:57:59;6.75;;;3.40;;
18931;SDS011;9598;50.954;3.112;2023-04-25T05:03:24;6.57;;;3.70;;
18931;SDS011;9598;50.954;3.112;2023-04-25T05:08:42;6.32;;;3.35;;
18931;SDS011;9598;50.954;3.112;2023-04-25T05:13:52;6.75;;;3.25;;
18931;SDS011;9598;50.954;3.112;2023-04-25T05:19:17;5.68;;;3.15;;
18931;SDS011;9598;50.954;3.112;2023-04-25T05:24:28;7.05;;;2.78;;
18931;SDS011;9598;50.954;3.112;2023-04-25T05:29:47;5.63;;;2.92;;
18931;SDS011;9598;50.954;3.112;2023-04-25T05:34:56;9.25;;;3.78;;
18931;SDS011;9598;50.954;3.112;2023-04-25T05:40:02;9.43;;;3.38;;
18931;SDS011;9598;50.954;3.112;2023-04-25T05:45:35;11.07;;;4.28;;
18931;SDS011;9598;50.954;3.112;2023-04-25T05:50:43;11.52;;;4.35;;
18931;SDS011;9598;50.954;3.112;2023-04-25T05:56:17;8.73;;;5.20;;
18931;SDS011;9598;50.954;3.112;2023-04-25T06:01:23;14.00;;;5.10;;
18931;SDS011;9598;50.954;3.112;2023-04-25T06:06:25;8.20;;;3.90;;
18931;SDS011;9598;50.954;3.112;2023-04-25T06:11:28;7.03;;;3.88;;
18931;SDS011;9598;50.954;3.112;2023-04-25T06:16:31;5.60;;;2.95;;
18931;SDS011;9598;50.954;3.112;2023-04-25T06:21:33;7.55;;;2.97;;
18931;SDS011;9598;50.954;3.112;2023-04-25T06:26:35;7.38;;;2.72;;
18931;SDS011;9598;50.954;3.112;2023-04-25T06:31:39;6.88;;;2.60;;
18931;SDS011;9598;50.954;3.112;2023-04-25T06:36:42;13.30;;;3.05;;
18931;SDS011;9598;50.954;3.112;2023-04-25T06:41:48;6.53;;;2.80;;
18931;SDS011;9598;50.954;3.112;2023-04-25T06:47:16;5.60;;;3.00;;
18931;SDS011;9598;50.954;3.112;2023-04-25T06:52:18;7.88;;;3.25;;
18931;SDS011;9598;50.954;3.112;2023-04-25T06:57:21;7.60;;;3.00;;
18931;SDS011;9598;50.954;3.112;2023-04-25T07:02:25;7.63;;;2.75;;
18931;SDS011;9598;50.954;3.112;2023-04-25T07:07:28;5.55;;;2.55;;
18931;SDS011;9598;50.954;3.112;2023-04-25T07:12:32;6.97;;;3.22;;
18931;SDS011;9598;50.954;3.112;2023-04-25T07:17:36;6.60;;;2.85;;
18931;SDS011;9598;50.954;3.112;2023-04-25T07:22:38;7.95;;;3.05;;
18931;SDS011;9598;50.954;3.112;2023-04-25T07:27:40;6.43;;;2.40;;
18931;SDS011;9598;50.954;3.112;2023-04-25T07:32:50;6.90;;;2.50;;
18931;SDS011;9598;50.954;3.112;2023-04-25T07:37:53;6.93;;;2.25;;
18931;SDS011;9598;50.954;3.112;2023-04-25T07:42:55;7.97;;;2.40;;
18931;SDS011;9598;50.954;3.112;2023-04-25T07:48:09;7.03;;;2.47;;
18931;SDS011;9598;50.954;3.112;2023-04-25T07:53:13;7.22;;;3.10;;
18931;SDS011;9598;50.954;3.112;2023-04-25T07:58:23;5.70;;;2.35;;
18931;SDS011;9598;50.954;3.112;2023-04-25T08:03:31;5.88;;;3.42;;
18931;SDS011;9598;50.954;3.112;2023-04-25T08:08:34;6.57;;;2.45;;
18931;SDS011;9598;50.954;3.112;2023-04-25T08:13:37;6.88;;;2.30;;
18931;SDS011;9598;50.954;3.112;2023-04-25T08:18:41;7.63;;;2.55;;
18931;SDS011;9598;50.954;3.112;2023-04-25T08:23:44;5.53;;;1.88;;
18931;SDS011;9598;50.954;3.112;2023-04-25T08:28:57;6.15;;;2.08;;
18931;SDS011;9598;50.954;3.112;2023-04-25T08:34:01;6.50;;;2.70;;
18931;SDS011;9598;50.954;3.112;2023-04-25T08:39:13;5.38;;;2.55;;
18931;SDS011;9598;50.954;3.112;2023-04-25T08:44:24;8.13;;;1.90;;
18931;SDS011;9598;50.954;3.112;2023-04-25T08:49:29;6.50;;;2.10;;
18931;SDS011;9598;50.954;3.112;2023-04-25T08:54:32;3.88;;;1.85;;
18931;SDS011;9598;50.954;3.112;2023-04-25T08:59:35;3.95;;;1.95;;
18931;SDS011;9598;50.954;3.112;2023-04-25T09:04:42;6.72;;;1.90;;
18931;SDS011;9598;50.954;3.112;2023-04-25T09:09:45;2.88;;;1.60;;
18931;SDS011;9598;50.954;3.112;2023-04-25T09:15:06;3.08;;;1.90;;
18931;SDS011;9598;50.954;3.112;2023-04-25T09:20:42;7.30;;;2.35;;
18931;SDS011;9598;50.954;3.112;2023-04-25T09:25:45;4.90;;;2.13;;
18931;SDS011;9598;50.954;3.112;2023-04-25T09:30:49;8.15;;;2.08;;
18931;SDS011;9598;50.954;3.112;2023-04-25T09:36:04;5.43;;;1.70;;
18931;SDS011;9598;50.954;3.112;2023-04-25T09:41:30;5.88;;;2.28;;
18931;SDS011;9598;50.954;3.112;2023-04-25T09:46:36;4.35;;;1.70;;
18931;SDS011;9598;50.954;3.112;2023-04-25T09:51:43;5.30;;;1.50;;
18931;SDS011;9598;50.954;3.112;2023-04-25T09:56:56;4.10;;;1.33;;
18931;SDS011;9598;50.954;3.112;2023-04-25T10:02:08;5.80;;;1.73;;
18931;SDS011;9598;50.954;3.112;2023-04-25T10:07:13;3.78;;;2.10;;
18931;SDS011;9598;50.954;3.112;2023-04-25T10:12:18;4.53;;;1.80;;
18931;SDS011;9598;50.954;3.112;2023-04-25T10:17:21;3.85;;;1.65;;
18931;SDS011;9598;50.954;3.112;2023-04-25T10:22:29;3.17;;;1.40;;
18931;SDS011;9598;50.954;3.112;2023-04-25T10:27:33;4.00;;;1.50;;
18931;SDS011;9598;50.954;3.112;2023-04-25T10:32:36;3.30;;;1.50;;
18931;SDS011;9598;50.954;3.112;2023-04-25T10:37:39;5.13;;;1.73;;
18931;SDS011;9598;50.954;3.112;2023-04-25T10:48:33;4.30;;;1.25;;
18931;SDS011;9598;50.954;3.112;2023-04-25T10:53:37;3.45;;;1.00;;
18931;SDS011;9598;50.954;3.112;2023-04-25T10:58:42;3.17;;;1.25;;
18931;SDS011;9598;50.954;3.112;2023-04-25T11:03:45;4.97;;;1.65;;
18931;SDS011;9598;50.954;3.112;2023-04-25T11:08:51;2.30;;;1.17;;
18931;SDS011;9598;50.954;3.112;2023-04-25T11:13:53;4.68;;;1.52;;
18931;SDS011;9598;50.954;3.112;2023-04-25T11:18:57;3.08;;;1.27;;
18931;SDS011;9598;50.954;3.112;2023-04-25T11:24:00;3.05;;;1.67;;
18931;SDS011;9598;50.954;3.112;2023-04-25T11:29:03;3.63;;;1.50;;
18931;SDS011;9598;50.954;3.112;2023-04-25T11:34:05;2.67;;;1.52;;
18931;SDS011;9598;50.954;3.112;2023-04-25T11:39:08;3.53;;;1.23;;
18931;SDS011;9598;50.954;3.112;2023-04-25T11:44:10;2.42;;;1.25;;
18931;SDS011;9598;50.954;3.112;2023-04-25T11:49:13;3.47;;;1.33;;
18931;SDS011;9598;50.954;3.112;2023-04-25T11:54:16;4.00;;;1.10;;
18931;SDS011;9598;50.954;3.112;2023-04-25T11:59:22;3.75;;;1.90;;
18931;SDS011;9598;50.954;3.112;2023-04-25T12:04:25;7.57;;;1.95;;
18931;SDS011;9598;50.954;3.112;2023-04-25T12:09:29;6.00;;;2.65;;
18931;SDS011;9598;50.954;3.112;2023-04-25T12:14:33;4.10;;;2.05;;
18931;SDS011;9598;50.954;3.112;2023-04-25T12:19:37;6.07;;;2.10;;
18931;SDS011;9598;50.954;3.112;2023-04-25T12:24:44;6.18;;;2.05;;
18931;SDS011;9598;50.954;3.112;2023-04-25T12:29:50;3.70;;;1.65;;
18931;SDS011;9598;50.954;3.112;2023-04-25T12:34:54;4.35;;;1.60;;
18931;SDS011;9598;50.954;3.112;2023-04-25T12:39:57;5.72;;;3.03;;
18931;SDS011;9598;50.954;3.112;2023-04-25T12:44:59;2.97;;;1.65;;
18931;SDS011;9598;50.954;3.112;2023-04-25T12:50:01;4.18;;;1.50;;
18931;SDS011;9598;50.954;3.112;2023-04-25T12:55:05;7.20;;;1.73;;
18931;SDS011;9598;50.954;3.112;2023-04-25T13:00:08;2.13;;;1.30;;
18931;SDS011;9598;50.954;3.112;2023-04-25T13:05:14;3.45;;;1.13;;
18931;SDS011;9598;50.954;3.112;2023-04-25T13:10:18;4.07;;;1.30;;
18931;SDS011;9598;50.954;3.112;2023-04-25T13:15:20;3.05;;;1.63;;
18931;SDS011;9598;50.954;3.112;2023-04-25T13:20:23;1.73;;;1.13;;
18931;SDS011;9598;50.954;3.112;2023-04-25T13:25:26;3.63;;;1.63;;
18931;SDS011;9598;50.954;3.112;2023-04-25T13:30:28;3.08;;;1.30;;
18931;SDS011;9598;50.954;3.112;2023-04-25T13:35:30;2.13;;;1.60;;
18931;SDS011;9598;50.954;3.112;2023-04-25T13:40:34;3.05;;;1.33;;
18931;SDS011;9598;50.954;3.112;2023-04-25T13:45:36;3.05;;;1.40;;
18931;SDS011;9598;50.954;3.112;2023-04-25T13:50:39;4.50;;;1.60;;
18931;SDS011;9598;50.954;3.112;2023-04-25T13:55:42;5.22;;;2.08;;
18931;SDS011;9598;50.954;3.112;2023-04-25T14:00:44;3.67;;;1.35;;
18931;SDS011;9598;50.954;3.112;2023-04-25T14:05:47;2.38;;;1.33;;
18931;SDS011;9598;50.954;3.112;2023-04-25T14:10:50;4.72;;;1.83;;
18931;SDS011;9598;50.954;3.112;2023-04-25T14:15:52;3.65;;;1.65;;
18931;SDS011;9598;50.954;3.112;2023-04-25T14:20:54;3.17;;;1.23;;
18931;SDS011;9598;50.954;3.112;2023-04-25T14:25:58;2.72;;;1.35;;
18931;SDS011;9598;50.954;3.112;2023-04-25T14:31:00;6.43;;;2.17;;
18931;SDS011;9598;50.954;3.112;2023-04-25T14:36:02;6.95;;;2.08;;
18931;SDS011;9598;50.954;3.112;2023-04-25T14:41:06;2.17;;;1.42;;
18931;SDS011;9598;50.954;3.112;2023-04-25T14:46:10;4.85;;;1.92;;
18931;SDS011;9598;50.954;3.112;2023-04-25T14:51:12;3.75;;;1.60;;
18931;SDS011;9598;50.954;3.112;2023-04-25T14:56:15;6.13;;;2.08;;
18931;SDS011;9598;50.954;3.112;2023-04-25T15:01:18;6.28;;;2.10;;
18931;SDS011;9598;50.954;3.112;2023-04-25T15:06:21;5.85;;;1.73;;
18931;SDS011;9598;50.954;3.112;2023-04-25T15:11:28;4.70;;;1.88;;
18931;SDS011;9598;50.954;3.112;2023-04-25T15:16:30;6.07;;;2.13;;
18931;SDS011;9598;50.954;3.112;2023-04-25T15:21:32;6.43;;;3.30;;
18931;SDS011;9598;50.954;3.112;2023-04-25T15:26:35;6.45;;;1.40;;
18931;SDS011;9598;50.954;3.112;2023-04-25T15:31:37;1.83;;;1.50;;
18931;SDS011;9598;50.954;3.112;2023-04-25T15:36:40;4.70;;;1.35;;
18931;SDS011;9598;50.954;3.112;2023-04-25T15:41:43;3.88;;;1.65;;
18931;SDS011;9598;50.954;3.112;2023-04-25T15:46:45;4.07;;;1.70;;
18931;SDS011;9598;50.954;3.112;2023-04-25T15:51:48;3.33;;;1.40;;
18931;SDS011;9598;50.954;3.112;2023-04-25T15:56:51;5.95;;;2.30;;
18931;SDS011;9598;50.954;3.112;2023-04-25T16:01:53;4.18;;;1.92;;
18931;SDS011;9598;50.954;3.112;2023-04-25T16:06:56;4.30;;;1.70;;
18931;SDS011;9598;50.954;3.112;2023-04-25T16:11:59;5.03;;;1.65;;
18931;SDS011;9598;50.954;3.112;2023-04-25T16:17:02;6.50;;;1.85;;
18931;SDS011;9598;50.954;3.112;2023-04-25T16:22:04;4.50;;;2.08;;
18931;SDS011;9598;50.954;3.112;2023-04-25T16:27:09;4.93;;;1.42;;
18931;SDS011;9598;50.954;3.112;2023-04-25T16:32:11;4.43;;;1.52;;
18931;SDS011;9598;50.954;3.112;2023-04-25T16:37:13;3.42;;;1.73;;
18931;SDS011;9598;50.954;3.112;2023-04-25T16:42:17;5.50;;;1.65;;
18931;SDS011;9598;50.954;3.112;2023-04-25T16:47:19;4.00;;;1.63;;
18931;SDS011;9598;50.954;3.112;2023-04-25T16:52:21;2.38;;;1.25;;
18931;SDS011;9598;50.954;3.112;2023-04-25T16:57:24;2.47;;;1.60;;
18931;SDS011;9598;50.954;3.112;2023-04-25T17:02:26;5.53;;;1.60;;
18931;SDS011;9598;50.954;3.112;2023-04-25T17:07:29;2.72;;;1.65;;
18931;SDS011;9598;50.954;3.112;2023-04-25T17:12:32;3.65;;;1.60;;
18931;SDS011;9598;50.954;3.112;2023-04-25T17:17:35;7.20;;;3.78;;
18931;SDS011;9598;50.954;3.112;2023-04-25T17:22:37;7.45;;;2.67;;
18931;SDS011;9598;50.954;3.112;2023-04-25T17:27:40;4.40;;;2.42;;
18931;SDS011;9598;50.954;3.112;2023-04-25T17:32:42;6.22;;;1.80;;
18931;SDS011;9598;50.954;3.112;2023-04-25T17:37:45;3.30;;;1.75;;
18931;SDS011;9598;50.954;3.112;2023-04-25T17:42:49;4.88;;;1.90;;
18931;SDS011;9598;50.954;3.112;2023-04-25T17:47:51;7.10;;;2.33;;
18931;SDS011;9598;50.954;3.112;2023-04-25T17:52:53;3.33;;;1.92;;
18931;SDS011;9598;50.954;3.112;2023-04-25T17:57:57;4.47;;;2.15;;
18931;SDS011;9598;50.954;3.112;2023-04-25T18:02:59;2.92;;;1.70;;
18931;SDS011;9598;50.954;3.112;2023-04-25T18:08:01;3.65;;;2.13;;
18931;SDS011;9598;50.954;3.112;2023-04-25T18:13:05;5.15;;;1.88;;
18931;SDS011;9598;50.954;3.112;2023-04-25T18:18:08;4.00;;;1.88;;
18931;SDS011;9598;50.954;3.112;2023-04-25T18:23:19;5.55;;;1.90;;
18931;SDS011;9598;50.954;3.112;2023-04-25T18:28:22;4.03;;;1.80;;
18931;SDS011;9598;50.954;3.112;2023-04-25T18:33:24;3.50;;;1.85;;
18931;SDS011;9598;50.954;3.112;2023-04-25T18:38:26;4.25;;;1.77;;
18931;SDS011;9598;50.954;3.112;2023-04-25T18:43:30;4.60;;;1.95;;
18931;SDS011;9598;50.954;3.112;2023-04-25T18:48:32;3.50;;;2.65;;
18931;SDS011;9598;50.954;3.112;2023-04-25T18:53:34;6.47;;;2.90;;
18931;SDS011;9598;50.954;3.112;2023-04-25T18:58:38;6.20;;;2.78;;
18931;SDS011;9598;50.954;3.112;2023-04-25T19:03:40;4.88;;;2.75;;
18931;SDS011;9598;50.954;3.112;2023-04-25T19:08:42;3.40;;;2.15;;
18931;SDS011;9598;50.954;3.112;2023-04-25T19:13:46;8.25;;;4.53;;
18931;SDS011;9598;50.954;3.112;2023-04-25T19:18:48;9.85;;;4.00;;
18931;SDS011;9598;50.954;3.112;2023-04-25T19:23:51;4.32;;;2.60;;
18931;SDS011;9598;50.954;3.112;2023-04-25T19:29:04;5.90;;;2.38;;
18931;SDS011;9598;50.954;3.112;2023-04-25T19:34:08;8.63;;;2.80;;
18931;SDS011;9598;50.954;3.112;2023-04-25T19:39:10;4.32;;;2.78;;
18931;SDS011;9598;50.954;3.112;2023-04-25T19:44:14;4.80;;;3.17;;
18931;SDS011;9598;50.954;3.112;2023-04-25T19:49:16;6.13;;;2.92;;
18931;SDS011;9598;50.954;3.112;2023-04-25T19:54:18;3.50;;;2.60;;
18931;SDS011;9598;50.954;3.112;2023-04-25T19:59:21;6.53;;;3.38;;
18931;SDS011;9598;50.954;3.112;2023-04-25T20:04:23;5.60;;;3.10;;
18931;SDS011;9598;50.954;3.112;2023-04-25T20:09:26;5.90;;;3.65;;
18931;SDS011;9598;50.954;3.112;2023-04-25T20:14:29;3.95;;;3.22;;
18931;SDS011;9598;50.954;3.112;2023-04-25T20:19:31;7.78;;;3.15;;
18931;SDS011;9598;50.954;3.112;2023-04-25T20:24:33;5.38;;;2.78;;
18931;SDS011;9598;50.954;3.112;2023-04-25T20:29:37;6.20;;;3.20;;
18931;SDS011;9598;50.954;3.112;2023-04-25T20:34:41;5.10;;;3.13;;
18931;SDS011;9598;50.954;3.112;2023-04-25T20:39:43;3.75;;;2.95;;
18931;SDS011;9598;50.954;3.112;2023-04-25T20:44:46;6.43;;;3.00;;
18931;SDS011;9598;50.954;3.112;2023-04-25T20:49:49;7.00;;;3.13;;
18931;SDS011;9598;50.954;3.112;2023-04-25T20:54:51;5.78;;;3.38;;
18931;SDS011;9598;50.954;3.112;2023-04-25T20:59:55;4.22;;;3.40;;
18931;SDS011;9598;50.954;3.112;2023-04-25T21:04:57;5.57;;;3.50;;
18931;SDS011;9598;50.954;3.112;2023-04-25T21:09:59;4.95;;;3.83;;
18931;SDS011;9598;50.954;3.112;2023-04-25T21:15:02;4.80;;;4.13;;
18931;SDS011;9598;50.954;3.112;2023-04-25T21:20:06;7.35;;;3.75;;
18931;SDS011;9598;50.954;3.112;2023-04-25T21:25:10;5.35;;;3.45;;
18931;SDS011;9598;50.954;3.112;2023-04-25T21:30:16;7.05;;;3.92;;
18931;SDS011;9598;50.954;3.112;2023-04-25T21:35:19;7.10;;;4.05;;
18931;SDS011;9598;50.954;3.112;2023-04-25T21:40:22;5.53;;;4.13;;
18931;SDS011;9598;50.954;3.112;2023-04-25T21:45:25;7.13;;;4.05;;
18931;SDS011;9598;50.954;3.112;2023-04-25T21:50:28;6.10;;;4.18;;
18931;SDS011;9598;50.954;3.112;2023-04-25T21:55:30;6.13;;;4.20;;
18931;SDS011;9598;50.954;3.112;2023-04-25T22:00:34;4.85;;;4.13;;
18931;SDS011;9598;50.954;3.112;2023-04-25T22:05:36;5.22;;;3.90;;
18931;SDS011;9598;50.954;3.112;2023-04-25T22:10:38;8.02;;;4.53;;
18931;SDS011;9598;50.954;3.112;2023-04-25T22:15:42;6.07;;;3.60;;
18931;SDS011;9598;50.954;3.112;2023-04-25T22:20:45;6.53;;;3.53;;
18931;SDS011;9598;50.954;3.112;2023-04-25T22:25:47;3.92;;;3.47;;
18931;SDS011;9598;50.954;3.112;2023-04-25T22:30:50;4.28;;;3.78;;
18931;SDS011;9598;50.954;3.112;2023-04-25T22:35:52;5.15;;;3.50;;
18931;SDS011;9598;50.954;3.112;2023-04-25T22:40:54;5.85;;;4.03;;
18931;SDS011;9598;50.954;3.112;2023-04-25T22:45:58;5.93;;;3.95;;
18931;SDS011;9598;50.954;3.112;2023-04-25T22:51:01;5.43;;;3.85;;
18931;SDS011;9598;50.954;3.112;2023-04-25T22:56:04;5.65;;;3.95;;
18931;SDS011;9598;50.954;3.112;2023-04-25T23:01:08;7.60;;;4.65;;
18931;SDS011;9598;50.954;3.112;2023-04-25T23:06:10;5.68;;;4.05;;
18931;SDS011;9598;50.954;3.112;2023-04-25T23:11:12;6.90;;;4.22;;
18931;SDS011;9598;50.954;3.112;2023-04-25T23:16:16;7.28;;;4.30;;
18931;SDS011;9598;50.954;3.112;2023-04-25T23:21:18;4.30;;;3.65;;
18931;SDS011;9598;50.954;3.112;2023-04-25T23:26:20;6.35;;;4.47;;
18931;SDS011;9598;50.954;3.112;2023-04-25T23:31:24;9.40;;;4.18;;
18931;SDS011;9598;50.954;3.112;2023-04-25T23:36:26;5.07;;;4.63;;
18931;SDS011;9598;50.954;3.112;2023-04-25T23:41:28;5.13;;;4.32;;
18931;SDS011;9598;50.954;3.112;2023-04-25T23:46:31;7.45;;;4.72;;
18931;SDS011;9598;50.954;3.112;2023-04-25T23:51:34;5.72;;;4.15;;
18931;SDS011;9598;50.954;3.112;2023-04-25T23:56:36;8.73;;;5.00;;
